首页
METAR-TAF:

METAR-TAF

机场 :

沙加緬度國際機場

沙加緬度, 加利福尼亚州, 美国

纬度: 38-42-05N, 经度: 121-35-38W, 海拔: 8米

当前天气观测

该预报发布于29分钟前的16:53 UTC
风速13节,风向
温度 28°C
湿度 30%
气压 1012 hPa
能見度: 16.1公里
天空无云

METAR: KSMF 241653Z 19013KT 10SM CLR 28/09 A2987 RMK AO2 SLP113 T02830094

时间: 10:22 (17:22 UTC)

预报

该预报发布于6小时和2分钟前的11:20 UTC
预报有效从24日的 12点(UTC)到 25日的 12点(UTC)
风速11节,风向
能見度: 10公里
天空无云

TAF: KSMF 241120Z 2412/2512 17011KT P6SM SKC

超过4000个机场的气象观测和天气预报(METAR&TAF报告)。

可查询的气象台以黄色和红色小点在地图上表示。

将鼠标移到小点上方,可查看气象台名称。

然后点击查看天气观测和预报。

如需切换地图:点击带黑十字的绿色按钮放大地图;点击带横线的绿色按钮缩小地图;或者点击绿色箭头查看邻近地区的地图。


METAR-TAF: